Time;durP1;ratioP1;P1;durP2;ratioP2;P2;SDS_P1;SDS_P2;PMS_P1;PMS_P2;Temp;Humidity;BMP_temperature;BMP_pressure;BME280_temperature;BME280_humidity;BME280_pressure;Samples;Min_cycle;Max_cycle;Signal;HPM_P1;HPM_P2
2023/07/10 00:00:20;;;;;;;7.30;1.65;;;;;;;17.74;100.00;101105.06;4885033;29;20033;-68
2023/07/10 00:02:45;;;;;;;8.85;2.03;;;;;;;17.73;100.00;101108.22;4869749;29;20425;-69
2023/07/10 00:05:13;;;;;;;5.90;1.70;;;;;;;17.68;100.00;101097.16;4884788;29;20070;-68
2023/07/10 00:07:38;;;;;;;6.82;2.10;;;;;;;17.65;100.00;101102.25;4854273;29;20043;-69
2023/07/10 00:10:04;;;;;;;5.53;1.70;;;;;;;17.60;100.00;101099.59;4900396;29;20502;-68
2023/07/10 00:12:30;;;;;;;7.43;2.20;;;;;;;17.59;100.00;101091.53;4866367;29;20033;-68
2023/07/10 00:14:55;;;;;;;6.07;1.65;;;;;;;17.53;100.00;101095.66;4883484;29;20029;-68
2023/07/10 00:17:20;;;;;;;6.82;1.73;;;;;;;17.51;100.00;101095.97;4869517;29;20104;-68
2023/07/10 00:19:46;;;;;;;8.63;2.17;;;;;;;17.46;100.00;101096.09;4884682;29;20047;-68
2023/07/10 00:22:11;;;;;;;6.95;1.98;;;;;;;17.47;100.00;101094.97;4870485;29;20036;-69
2023/07/10 00:24:37;;;;;;;6.57;1.92;;;;;;;17.40;100.00;101084.19;4872789;29;20029;-69
2023/07/10 00:27:05;;;;;;;7.82;2.28;;;;;;;17.43;100.00;101088.34;4873011;29;20033;-68
2023/07/10 00:29:33;;;;;;;7.22;1.98;;;;;;;17.37;100.00;101089.66;4888210;29;20037;-68
2023/07/10 00:31:59;;;;;;;7.00;2.17;;;;;;;17.36;100.00;101094.44;4888043;29;20037;-69
2023/07/10 00:34:25;;;;;;;10.52;2.67;;;;;;;17.34;100.00;101096.75;4872525;29;20032;-68
2023/07/10 00:36:50;;;;;;;7.88;2.17;;;;;;;17.32;100.00;101098.22;4872609;29;20032;-68
2023/07/10 00:39:23;;;;;;;7.65;2.40;;;;;;;17.24;100.00;101097.03;4868024;29;20028;-69
2023/07/10 00:42:00;;;;;;;9.65;2.45;;;;;;;17.23;100.00;101100.19;4887991;29;20431;-68
2023/07/10 00:44:30;;;;;;;7.75;2.40;;;;;;;17.19;100.00;101095.22;4887907;29;20114;-68
2023/07/10 00:46:57;;;;;;;7.90;2.00;;;;;;;17.13;100.00;101093.72;4877027;29;20394;-68
2023/07/10 00:50:03;;;;;;;6.22;2.28;;;;;;;17.12;100.00;101103.25;4857581;29;20025;-68
2023/07/10 00:52:33;;;;;;;6.93;2.22;;;;;;;17.10;100.00;101107.53;4846384;29;20042;-68
2023/07/10 00:55:00;;;;;;;5.07;1.80;;;;;;;17.04;100.00;101109.66;4846307;29;20050;-68
2023/07/10 00:57:35;;;;;;;5.47;1.85;;;;;;;17.03;100.00;101101.59;4828139;29;20068;-68
2023/07/10 01:00:08;;;;;;;5.70;1.60;;;;;;;16.98;100.00;101108.16;4831192;29;20038;-69
2023/07/10 01:02:33;;;;;;;;;;;;;;;16.94;100.00;101105.19;4843131;29;20060;-68
2023/07/10 01:05:00;;;;;;;6.07;1.90;;;;;;;16.90;100.00;101097.72;4827405;29;19920;-69
2023/07/10 01:07:27;;;;;;;7.07;1.98;;;;;;;16.87;100.00;101103.97;4843337;29;20050;-68
2023/07/10 01:09:56;;;;;;;8.45;2.13;;;;;;;16.84;100.00;101107.44;4830957;29;20054;-68
2023/07/10 01:12:21;;;;;;;9.90;2.20;;;;;;;16.84;100.00;101099.84;4846124;29;20037;-69
2023/07/10 01:14:47;;;;;;;9.40;2.22;;;;;;;16.82;100.00;101104.09;4846269;29;20610;-69
2023/07/10 01:17:12;;;;;;;6.22;1.70;;;;;;;16.78;100.00;101100.31;4827860;29;20611;-68
2023/07/10 01:19:38;;;;;;;6.40;1.85;;;;;;;16.73;100.00;101099.25;4827537;29;20072;-68
2023/07/10 01:22:03;;;;;;;7.55;2.03;;;;;;;16.72;100.00;101106.00;4845992;29;20034;-68
2023/07/10 01:24:29;;;;;;;7.85;1.60;;;;;;;16.73;100.00;101098.41;4800673;29;20045;-68
2023/07/10 01:26:55;;;;;;;6.78;1.63;;;;;;;16.68;100.00;101092.94;4858044;29;20056;-68
2023/07/10 01:29:36;;;;;;;5.68;1.75;;;;;;;16.64;100.00;101095.56;4871685;29;20099;-68
2023/07/10 01:32:02;;;;;;;6.60;1.70;;;;;;;16.62;100.00;101091.44;4856467;29;20040;-68
2023/07/10 01:34:54;;;;;;;5.82;1.70;;;;;;;16.60;100.00;101097.34;4870990;29;20044;-68
2023/07/10 01:37:19;;;;;;;4.90;1.60;;;;;;;16.56;100.00;101093.53;4869265;29;20048;-68
2023/07/10 01:39:47;;;;;;;8.50;1.80;;;;;;;16.53;100.00;101100.63;4882631;29;20065;-68
2023/07/10 01:42:12;;;;;;;5.80;1.58;;;;;;;16.50;100.00;101090.03;4882233;29;20458;-69
2023/07/10 01:44:39;;;;;;;6.18;1.73;;;;;;;16.51;100.00;101096.47;4885933;29;20044;-69
2023/07/10 01:47:07;;;;;;;4.88;1.55;;;;;;;16.48;100.00;101092.34;4892436;29;20033;-68
2023/07/10 01:49:45;;;;;;;7.50;1.95;;;;;;;16.43;100.00;101092.47;4886448;29;20506;-68
2023/07/10 01:52:13;;;;;;;5.82;1.83;;;;;;;16.42;100.00;101090.81;4871808;29;20057;-68
2023/07/10 01:54:39;;;;;;;6.20;1.60;;;;;;;16.42;100.00;101090.00;4871423;29;20063;-68
2023/07/10 01:57:06;;;;;;;6.50;1.92;;;;;;;16.40;100.00;101092.28;4870869;29;20032;-68
2023/07/10 01:59:31;;;;;;;6.65;1.95;;;;;;;16.38;100.00;101087.00;4855512;29;20050;-68
2023/07/10 02:01:57;;;;;;;7.00;1.88;;;;;;;16.35;100.00;101086.78;4886606;29;20028;-68
2023/07/10 02:04:22;;;;;;;9.27;2.33;;;;;;;16.34;100.00;101087.94;4855476;29;20125;-68
2023/07/10 02:06:48;;;;;;;7.03;1.60;;;;;;;16.29;100.00;101089.72;4871130;29;20043;-68
2023/07/10 02:09:13;;;;;;;7.90;1.90;;;;;;;16.29;100.00;101092.53;4855330;29;20211;-69
2023/07/10 02:11:39;;;;;;;4.55;1.58;;;;;;;16.26;100.00;101095.97;4886515;29;20029;-68
2023/07/10 02:14:05;;;;;;;6.80;1.65;;;;;;;16.22;100.00;101094.13;4886299;29;20036;-68
2023/07/10 02:16:31;;;;;;;6.35;1.73;;;;;;;16.22;100.00;101099.75;4886071;29;20028;-68
2023/07/10 02:18:56;;;;;;;8.23;1.80;;;;;;;16.20;100.00;101096.44;4885894;29;20068;-68
2023/07/10 02:21:22;;;;;;;5.40;2.03;;;;;;;16.18;100.00;101091.13;4855292;29;20046;-68
2023/07/10 02:23:47;;;;;;;8.52;1.95;;;;;;;16.15;100.00;101088.97;4870655;29;20040;-68
2023/07/10 02:26:14;;;;;;;5.03;1.30;;;;;;;16.15;100.00;101086.16;4901692;29;20084;-68
2023/07/10 02:28:39;;;;;;;7.72;2.10;;;;;;;16.11;100.00;101082.34;4870335;29;20520;-68
2023/07/10 02:31:05;;;;;;;8.48;1.70;;;;;;;16.08;100.00;101083.81;4855363;29;20036;-68
2023/07/10 02:33:31;;;;;;;6.28;1.88;;;;;;;16.10;100.00;101086.28;4870674;29;20474;-68
2023/07/10 02:35:56;;;;;;;6.45;1.50;;;;;;;16.06;100.00;101080.50;4885680;29;20037;-69
2023/07/10 02:38:22;;;;;;;6.78;1.45;;;;;;;16.07;100.00;101087.78;4908587;29;20055;-68
2023/07/10 02:40:47;;;;;;;4.88;1.70;;;;;;;16.01;100.00;101089.00;4888828;29;20038;-68
2023/07/10 02:43:13;;;;;;;6.20;1.77;;;;;;;16.02;100.00;101085.09;4885764;29;20447;-68
2023/07/10 02:45:38;;;;;;;6.68;1.67;;;;;;;15.98;100.00;101094.44;4868471;29;20032;-68
2023/07/10 02:48:04;;;;;;;7.57;1.52;;;;;;;16.00;100.00;101086.53;4892137;29;20032;-68
2023/07/10 02:50:29;;;;;;;5.68;1.83;;;;;;;15.96;100.00;101086.31;4885579;29;20083;-68
2023/07/10 02:52:55;;;;;;;6.88;1.63;;;;;;;15.95;100.00;101083.84;4854712;29;20032;-69
2023/07/10 02:55:20;;;;;;;7.50;1.60;;;;;;;15.94;100.00;101076.63;4885607;29;20029;-69
2023/07/10 02:57:46;;;;;;;7.30;1.65;;;;;;;15.92;100.00;101076.91;4870108;29;20032;-69
2023/07/10 03:00:12;;;;;;;7.90;1.67;;;;;;;15.91;100.00;101088.41;4854639;29;20085;-68
2023/07/10 03:02:37;;;;;;;4.43;1.35;;;;;;;15.90;100.00;101083.97;4885603;29;20083;-68
2023/07/10 03:05:03;;;;;;;7.63;1.90;;;;;;;15.87;100.00;101079.84;4869888;29;20454;-68
2023/07/10 03:07:30;;;;;;;5.70;1.30;;;;;;;15.84;100.00;101080.47;4870098;29;20446;-68
2023/07/10 03:09:55;;;;;;;5.88;1.45;;;;;;;15.82;100.00;101080.78;4885339;29;20536;-68
2023/07/10 03:12:21;;;;;;;4.95;1.45;;;;;;;15.81;100.00;101073.53;4854737;29;20051;-68
2023/07/10 03:14:48;;;;;;;7.72;1.58;;;;;;;15.79;100.00;101073.00;4885542;29;20036;-69
2023/07/10 03:17:13;;;;;;;5.20;1.27;;;;;;;15.79;100.00;101072.19;4854555;29;20039;-68
2023/07/10 03:19:39;;;;;;;5.15;1.55;;;;;;;15.75;100.00;101072.00;4869828;29;20036;-68
2023/07/10 03:22:05;;;;;;;4.18;1.15;;;;;;;15.71;100.00;101072.94;4885369;29;20378;-68
2023/07/10 03:24:31;;;;;;;7.82;1.40;;;;;;;15.70;100.00;101080.50;4869898;29;20033;-68
2023/07/10 03:26:56;;;;;;;5.22;1.30;;;;;;;15.76;100.00;101082.03;4885489;29;20047;-68
2023/07/10 03:29:21;;;;;;;5.93;1.88;;;;;;;15.66;100.00;101085.06;4854637;29;20028;-68
2023/07/10 03:31:47;;;;;;;6.80;1.50;;;;;;;15.66;100.00;101085.06;4885479;29;20037;-68
2023/07/10 03:34:13;;;;;;;8.38;2.03;;;;;;;15.61;100.00;101090.75;4869708;29;20033;-68
2023/07/10 03:36:38;;;;;;;7.75;1.73;;;;;;;15.64;100.00;101084.53;4885308;29;20540;-68
2023/07/10 03:39:04;;;;;;;4.32;1.70;;;;;;;15.62;100.00;101084.00;4881135;29;20062;-68
2023/07/10 03:41:31;;;;;;;4.72;1.60;;;;;;;15.59;100.00;101081.84;4869978;29;20059;-68
2023/07/10 03:43:57;;;;;;;7.30;1.88;;;;;;;15.58;100.00;101085.78;4884485;29;20043;-68
2023/07/10 03:46:22;;;;;;;5.28;1.63;;;;;;;15.56;100.00;101090.88;4877123;29;20033;-68
2023/07/10 03:48:48;;;;;;;4.13;1.38;;;;;;;15.56;100.00;101080.50;4880606;29;20041;-68
2023/07/10 03:51:14;;;;;;;8.35;1.48;;;;;;;15.51;100.00;101093.78;4869816;29;20037;-68
2023/07/10 03:53:39;;;;;;;8.20;1.60;;;;;;;15.53;100.00;101097.09;4885040;29;20033;-69
2023/07/10 03:56:05;;;;;;;8.07;1.70;;;;;;;15.47;100.00;101098.34;4840283;29;20039;-68
2023/07/10 03:58:32;;;;;;;7.10;1.33;;;;;;;15.46;100.00;101105.06;4888748;29;20036;-68
2023/07/10 04:00:58;;;;;;;9.95;1.50;;;;;;;15.44;100.00;101099.00;4873189;29;20052;-68
2023/07/10 04:03:25;;;;;;;7.03;1.70;;;;;;;15.47;100.00;101101.97;4888630;29;20040;-69
2023/07/10 04:05:52;;;;;;;7.75;1.88;;;;;;;15.45;100.00;101114.63;4873142;29;20064;-68
2023/07/10 04:08:22;;;;;;;8.05;1.92;;;;;;;15.39;100.00;101108.31;4905183;29;20497;-68
2023/07/10 04:10:51;;;;;;;7.07;1.98;;;;;;;15.35;100.00;101110.06;4857678;29;20024;-68
2023/07/10 04:13:17;;;;;;;8.30;1.85;;;;;;;15.35;100.00;101108.13;4872749;29;20044;-68
2023/07/10 04:15:42;;;;;;;8.25;1.42;;;;;;;15.35;100.00;101105.31;4888302;29;20389;-68
2023/07/10 04:18:08;;;;;;;7.45;1.83;;;;;;;15.35;100.00;101099.72;4888345;29;20512;-68
2023/07/10 04:20:33;;;;;;;6.07;1.42;;;;;;;15.37;100.00;101103.00;4888113;29;20033;-69
2023/07/10 04:22:59;;;;;;;7.72;1.70;;;;;;;15.35;100.00;101104.47;4888149;29;20040;-68
2023/07/10 04:25:24;;;;;;;7.47;1.92;;;;;;;15.34;100.00;101103.63;4888324;29;20032;-68
2023/07/10 04:27:50;;;;;;;7.97;1.40;;;;;;;15.33;100.00;101107.59;4888075;29;20028;-72
2023/07/10 04:30:15;;;;;;;6.70;1.60;;;;;;;15.31;100.00;101106.25;4888215;29;20025;-68
2023/07/10 04:32:41;;;;;;;6.97;1.70;;;;;;;15.32;100.00;101108.75;4888249;29;20082;-68
2023/07/10 04:35:07;;;;;;;5.72;1.65;;;;;;;15.32;100.00;101105.09;4887915;29;20028;-68
2023/07/10 04:37:32;;;;;;;7.07;1.60;;;;;;;15.35;100.00;101119.31;4857912;29;20109;-69
2023/07/10 04:39:58;;;;;;;4.80;1.50;;;;;;;15.34;100.00;101114.84;4872935;29;20044;-68
2023/07/10 04:42:23;;;;;;;4.50;1.50;;;;;;;15.41;100.00;101120.84;4900330;29;20043;-68
2023/07/10 04:44:49;;;;;;;5.88;1.60;;;;;;;15.41;100.00;101122.84;4888038;29;20029;-69
2023/07/10 04:47:14;;;;;;;8.45;1.58;;;;;;;15.44;100.00;101125.00;4876655;29;20033;-68
2023/07/10 04:49:40;;;;;;;6.95;1.50;;;;;;;15.46;100.00;101117.13;4872170;29;20032;-68
2023/07/10 04:52:06;;;;;;;5.90;2.00;;;;;;;15.54;100.00;101112.75;4888007;29;20028;-69
2023/07/10 04:54:31;;;;;;;4.35;1.88;;;;;;;15.60;100.00;101117.09;4887912;29;20037;-68
2023/07/10 04:56:56;;;;;;;8.93;1.95;;;;;;;15.63;100.00;101110.88;4856770;29;20056;-68
2023/07/10 04:59:22;;;;;;;4.50;1.60;;;;;;;15.70;100.00;101116.91;4856848;29;20037;-69
2023/07/10 05:01:47;;;;;;;4.68;1.40;;;;;;;15.76;100.00;101110.03;4903243;29;20037;-69
2023/07/10 05:04:13;;;;;;;7.57;1.75;;;;;;;15.82;100.00;101108.81;4887486;29;20043;-69
2023/07/10 05:06:38;;;;;;;4.90;1.45;;;;;;;15.94;100.00;101113.03;4887491;29;20092;-69
2023/07/10 05:09:04;;;;;;;5.25;1.70;;;;;;;16.00;100.00;101106.16;4871524;29;20517;-69
2023/07/10 05:11:30;;;;;;;4.70;1.70;;;;;;;16.08;100.00;101109.03;4903307;29;20036;-68
2023/07/10 05:13:55;;;;;;;9.48;2.25;;;;;;;16.18;100.00;101107.94;4841689;29;20035;-68
2023/07/10 05:16:21;;;;;;;8.48;2.13;;;;;;;16.27;100.00;101103.25;4871816;29;20405;-69
2023/07/10 05:18:47;;;;;;;7.03;1.85;;;;;;;16.37;100.00;101110.56;4840872;29;20442;-68
2023/07/10 05:21:12;;;;;;;5.85;1.65;;;;;;;16.48;100.00;101097.94;4871738;29;20473;-69
2023/07/10 05:23:38;;;;;;;6.63;1.98;;;;;;;16.59;100.00;101104.13;4856410;29;20036;-68
2023/07/10 05:26:10;;;;;;;11.02;2.67;;;;;;;16.68;100.00;101107.78;4887502;29;20028;-68
2023/07/10 05:28:36;;;;;;;7.50;1.80;;;;;;;16.80;100.00;101104.44;4871416;29;20495;-69
2023/07/10 05:31:02;;;;;;;5.47;1.75;;;;;;;16.91;100.00;101110.59;4886928;29;20029;-68
2023/07/10 05:33:28;;;;;;;7.70;2.20;;;;;;;17.02;100.00;101109.19;4887092;29;20033;-69
2023/07/10 05:36:01;;;;;;;6.72;1.88;;;;;;;17.13;100.00;101101.28;4887053;29;20029;-68
2023/07/10 05:38:28;;;;;;;5.35;1.83;;;;;;;17.26;100.00;101093.91;4894723;29;20091;-68
2023/07/10 05:40:54;;;;;;;8.95;2.20;;;;;;;17.38;100.00;101096.91;4873575;29;20037;-68
2023/07/10 05:43:20;;;;;;;7.28;2.03;;;;;;;17.49;100.00;101092.63;4886857;29;20040;-68
2023/07/10 05:45:47;;;;;;;7.10;1.60;;;;;;;17.61;100.00;101090.03;4854206;29;20045;-68
2023/07/10 05:48:12;;;;;;;8.23;2.00;;;;;;;17.74;100.00;101093.03;4871020;29;20032;-68
2023/07/10 05:50:38;;;;;;;7.50;1.90;;;;;;;17.87;100.00;101086.47;4886642;29;20029;-68
2023/07/10 05:53:03;;;;;;;8.50;2.25;;;;;;;18.01;100.00;101086.31;4871290;29;20481;-68
2023/07/10 05:55:29;;;;;;;6.72;1.52;;;;;;;18.17;100.00;101086.66;4886952;29;20047;-68
2023/07/10 05:57:54;;;;;;;8.32;1.70;;;;;;;18.30;100.00;101082.81;4871250;29;20376;-69
2023/07/10 06:00:19;;;;;;;5.18;1.73;;;;;;;18.45;100.00;101087.94;4886481;29;20024;-69
2023/07/10 06:02:45;;;;;;;6.72;2.05;;;;;;;18.61;100.00;101090.19;4886584;29;20037;-69
2023/07/10 06:05:10;;;;;;;6.53;1.77;;;;;;;18.74;100.00;101089.22;4852146;29;20039;-68
2023/07/10 06:07:36;;;;;;;7.50;2.10;;;;;;;18.90;100.00;101086.69;4862816;29;20039;-68
2023/07/10 06:10:01;;;;;;;9.13;2.00;;;;;;;19.04;100.00;101084.47;4886283;29;20052;-68
2023/07/10 06:12:27;;;;;;;7.22;1.70;;;;;;;19.19;100.00;101086.72;4870934;29;20039;-69
2023/07/10 06:14:52;;;;;;;5.00;1.95;;;;;;;19.35;100.00;101084.16;4870961;29;20048;-69
2023/07/10 06:17:18;;;;;;;10.05;2.00;;;;;;;19.51;100.00;101075.94;4870775;29;20482;-69
2023/07/10 06:19:43;;;;;;;7.43;2.10;;;;;;;19.65;100.00;101089.78;4869590;29;20083;-69
2023/07/10 06:22:10;;;;;;;6.10;2.00;;;;;;;19.83;100.00;101084.88;4870992;29;20028;-69
2023/07/10 06:24:36;;;;;;;6.90;2.08;;;;;;;19.99;100.00;101079.44;4855064;29;20031;-69
2023/07/10 06:27:02;;;;;;;10.65;2.47;;;;;;;20.12;100.00;101075.53;4886120;29;20033;-69
2023/07/10 06:29:28;;;;;;;5.40;1.90;;;;;;;20.30;100.00;101076.19;4886280;29;20036;-69
2023/07/10 06:31:54;;;;;;;7.50;2.38;;;;;;;20.45;100.00;101074.72;4870719;29;20029;-69
2023/07/10 06:34:19;;;;;;;7.75;2.25;;;;;;;20.59;100.00;101083.72;4870534;29;20036;-69
2023/07/10 06:36:44;;;;;;;7.45;2.10;;;;;;;20.73;100.00;101078.59;4840213;29;20032;-69
2023/07/10 06:39:10;;;;;;;13.00;3.35;;;;;;;20.88;100.00;101073.44;4850704;29;20474;-69
2023/07/10 06:41:36;;;;;;;7.60;2.25;;;;;;;21.01;100.00;101083.59;4870448;29;20036;-69
2023/07/10 06:44:01;;;;;;;9.48;2.78;;;;;;;21.14;100.00;101084.41;4902509;29;20040;-69
2023/07/10 06:46:27;;;;;;;8.57;2.40;;;;;;;21.26;100.00;101089.25;4878198;29;20033;-69
2023/07/10 06:48:52;;;;;;;8.65;2.38;;;;;;;21.37;100.00;101087.63;4898275;29;20040;-69
2023/07/10 06:51:18;;;;;;;9.20;2.85;;;;;;;21.48;100.00;101080.31;4885708;29;20057;-69
2023/07/10 06:53:43;;;;;;;9.52;2.58;;;;;;;21.58;100.00;101074.19;4854792;29;20079;-69
2023/07/10 06:56:09;;;;;;;9.32;2.60;;;;;;;21.67;100.00;101078.88;4885784;29;20036;-69
2023/07/10 06:58:34;;;;;;;6.68;2.13;;;;;;;21.78;100.00;101077.19;4870312;29;20166;-69
2023/07/10 07:01:00;;;;;;;9.27;2.20;;;;;;;21.89;100.00;101075.53;4870318;29;20036;-69
2023/07/10 07:03:26;;;;;;;7.38;2.45;;;;;;;21.97;100.00;101085.06;4885479;29;20040;-69
2023/07/10 07:05:52;;;;;;;7.38;2.25;;;;;;;22.05;100.00;101079.25;4854871;29;20059;-69
2023/07/10 07:08:17;;;;;;;6.75;2.15;;;;;;;22.18;100.00;101073.59;4854420;29;20072;-69
2023/07/10 07:10:43;;;;;;;8.70;2.17;;;;;;;22.26;100.00;101081.13;4870134;29;20525;-69
2023/07/10 07:13:09;;;;;;;11.75;2.50;;;;;;;22.30;100.00;101080.00;4854545;29;20041;-69
2023/07/10 07:15:34;;;;;;;9.27;2.67;;;;;;;;;;4870028;29;20039;-69
2023/07/10 07:18:00;;;;;;;7.60;2.47;;;;;;;22.51;100.00;101085.47;4892969;29;20041;-69
2023/07/10 07:20:25;;;;;;;12.43;2.42;;;;;;;22.63;100.00;101086.59;4869572;29;20811;-69
2023/07/10 07:22:51;;;;;;;8.90;2.38;;;;;;;22.72;100.00;101087.25;4885284;29;20039;-69
2023/07/10 07:25:18;;;;;;;9.43;2.38;;;;;;;22.79;100.00;101084.63;4885522;29;20036;-69
2023/07/10 07:27:43;;;;;;;10.00;1.92;;;;;;;22.86;100.00;101084.78;4900785;29;20081;-69
2023/07/10 07:30:09;;;;;;;8.07;2.10;;;;;;;22.97;100.00;101083.09;4870033;29;20029;-69
2023/07/10 07:32:34;;;;;;;8.20;1.92;;;;;;;23.14;100.00;101083.91;4873204;29;20424;-69
2023/07/10 07:35:00;;;;;;;10.65;2.25;;;;;;;23.21;100.00;101092.59;4889052;29;20024;-69
2023/07/10 07:37:25;;;;;;;10.20;2.33;;;;;;;23.26;100.00;101078.13;4857660;29;20025;-69
2023/07/10 07:39:51;;;;;;;10.20;2.60;;;;;;;23.41;100.00;101082.97;4899531;29;20049;-69
2023/07/10 07:42:16;;;;;;;9.10;1.83;;;;;;;23.54;100.00;101071.50;4889002;29;20481;-69
2023/07/10 07:44:42;;;;;;;7.03;1.55;;;;;;;23.64;100.00;101085.13;4889084;29;20036;-69
2023/07/10 07:47:10;;;;;;;7.45;2.22;;;;;;;23.80;100.00;101083.13;4873817;29;20544;-69
2023/07/10 07:49:36;;;;;;;9.85;2.28;;;;;;;23.88;100.00;101088.97;4872654;29;20032;-69
2023/07/10 07:52:01;;;;;;;11.40;2.20;;;;;;;24.00;100.00;101083.13;4856096;29;20032;-69
2023/07/10 07:54:27;;;;;;;6.65;1.92;;;;;;;24.10;100.00;101085.41;4842646;29;20037;-69
2023/07/10 07:56:52;;;;;;;6.05;1.98;;;;;;;24.22;100.00;101090.91;4858141;29;20033;-69
2023/07/10 07:59:18;;;;;;;9.98;2.22;;;;;;;24.33;100.00;101088.31;4857621;29;20029;-69
2023/07/10 08:04:09;;;;;;;6.70;1.52;;;;;;;24.55;100.00;101086.75;4938528;29;20051;-76
2023/07/10 08:06:35;;;;;;;9.23;1.90;;;;;;;24.67;100.00;101086.56;4944835;29;20094;-76
2023/07/10 08:09:07;;;;;;;6.20;1.67;;;;;;;24.80;100.00;101089.25;4925988;29;20039;-76
2023/07/10 08:11:33;;;;;;;13.40;2.25;;;;;;;24.89;100.00;101098.34;4937669;29;20042;-76
2023/07/10 08:13:58;;;;;;;7.93;2.10;;;;;;;24.99;100.00;101086.34;4927373;29;20036;-76
2023/07/10 08:16:24;;;;;;;7.95;1.92;;;;;;;25.15;100.00;101086.22;4928730;29;20031;-76
2023/07/10 08:18:49;;;;;;;8.07;2.00;;;;;;;25.23;100.00;101084.34;4913590;29;20027;-76
2023/07/10 08:21:15;;;;;;;8.13;1.80;;;;;;;25.35;100.00;101078.44;4919202;29;20031;-76
2023/07/10 08:23:40;;;;;;;7.38;2.10;;;;;;;25.44;100.00;101084.69;4960844;28;20031;-76
2023/07/10 08:26:06;;;;;;;7.07;1.50;;;;;;;25.54;100.00;101084.03;4932190;29;20042;-76
2023/07/10 08:28:32;;;;;;;8.52;1.55;;;;;;;25.64;100.00;101082.56;4932229;29;20036;-76
2023/07/10 08:30:58;;;;;;;8.80;1.98;;;;;;;25.73;100.00;101074.56;4927982;29;20035;-76
2023/07/10 08:33:24;;;;;;;5.30;1.73;;;;;;;25.81;100.00;101075.50;4943341;29;20028;-76
2023/07/10 08:35:57;;;;;;;9.70;3.15;;;;;;;25.86;100.00;101080.88;4909774;29;20046;-76
2023/07/10 08:38:26;;;;;;;9.98;2.28;;;;;;;25.82;100.00;101068.59;4923175;29;20024;-76
2023/07/10 08:40:54;;;;;;;5.65;1.45;;;;;;;25.92;100.00;101072.81;4960079;29;20518;-75
2023/07/10 08:43:28;;;;;;;7.35;1.60;;;;;;;26.01;100.00;101062.78;4926283;29;20031;-76
2023/07/10 08:46:06;;;;;;;8.48;1.63;;;;;;;26.17;100.00;101067.47;4928734;29;20488;-76
2023/07/10 08:49:00;;;;;;;8.93;1.80;;;;;;;26.26;100.00;101068.78;4941484;29;20066;-76
2023/07/10 08:51:47;;;;;;;5.40;1.33;;;;;;;26.37;100.00;101068.91;4923752;29;20484;-76
2023/07/10 08:54:16;;;;;;;8.15;1.60;;;;;;;26.44;100.00;101082.41;4932223;29;20032;-76
2023/07/10 08:56:49;;;;;;;7.25;1.48;;;;;;;26.54;99.54;101078.09;4947956;29;20034;-76
2023/07/10 08:59:38;;;;;;;11.20;1.90;;;;;;;26.56;100.00;101072.84;4925151;29;20035;-77
2023/07/10 09:02:26;;;;;;;8.52;1.70;;;;;;;26.64;98.45;101068.84;4956471;28;20559;-77
2023/07/10 09:04:52;;;;;;;7.10;1.70;;;;;;;26.65;99.13;101062.75;4941953;29;20047;-77
2023/07/10 09:07:25;;;;;;;7.85;1.70;;;;;;;26.73;97.81;101063.66;4944278;29;20039;-77
2023/07/10 09:09:55;;;;;;;12.43;2.38;;;;;;;26.78;96.33;101063.28;4932134;29;20034;-77
2023/07/10 09:12:39;;;;;;;7.38;2.15;;;;;;;26.80;96.60;101068.59;4918125;29;20086;-77
2023/07/10 09:15:53;;;;;;;9.05;1.70;;;;;;;26.90;97.45;101068.69;4941579;29;20035;-77
2023/07/10 09:18:28;;;;;;;7.40;1.65;;;;;;;26.98;95.81;101063.06;4863456;29;20146;-77
2023/07/10 09:20:54;;;;;;;9.30;1.70;;;;;;;27.11;95.07;101067.28;4861380;29;20037;-77
2023/07/10 09:23:28;;;;;;;5.95;1.50;;;;;;;27.23;92.55;101075.53;4852367;29;20054;-77
2023/07/10 09:25:59;;;;;;;8.55;1.60;;;;;;;27.25;87.91;101066.59;4850280;29;20033;-77
2023/07/10 09:28:25;;;;;;;8.82;1.85;;;;;;;27.37;88.08;101067.09;4838372;29;20070;-77
2023/07/10 09:30:59;;;;;;;7.13;1.58;;;;;;;27.48;86.19;101061.47;4852157;29;20032;-77
2023/07/10 09:33:38;;;;;;;5.18;1.38;;;;;;;27.55;85.37;101063.53;4864329;29;20038;-76
2023/07/10 09:36:10;;;;;;;6.40;1.48;;;;;;;27.63;84.26;101065.22;4848848;29;20045;-77
2023/07/10 09:38:36;;;;;;;8.10;1.60;;;;;;;27.71;81.58;101052.63;4849895;29;20696;-77
2023/07/10 09:41:01;;;;;;;6.85;1.23;;;;;;;27.78;83.64;101058.41;4861444;29;20033;-76
2023/07/10 09:43:27;;;;;;;5.43;1.45;;;;;;;27.92;83.77;101054.03;4857565;29;20104;-77
2023/07/10 09:45:57;;;;;;;7.05;1.35;;;;;;;28.03;82.08;101044.28;4849305;29;20041;-77
2023/07/10 09:48:35;;;;;;;8.90;1.52;;;;;;;28.13;78.17;101045.53;4865877;29;20043;-76
2023/07/10 09:51:02;;;;;;;8.55;1.58;;;;;;;28.26;78.02;101046.81;4913196;29;20054;-76
2023/07/10 09:53:38;;;;;;;7.90;1.95;;;;;;;28.42;78.03;101049.34;4943159;28;20052;-76
2023/07/10 09:56:03;;;;;;;8.27;1.67;;;;;;;28.54;76.58;101039.59;4927726;29;20035;-76
2023/07/10 09:58:29;;;;;;;9.32;1.58;;;;;;;28.65;75.82;101045.31;4930632;29;20055;-76
2023/07/10 10:00:55;;;;;;;6.70;1.48;;;;;;;28.80;73.51;101040.44;4895804;29;20035;-76
2023/07/10 10:03:27;;;;;;;9.45;1.77;;;;;;;28.91;72.15;101027.78;4895107;29;20431;-76
2023/07/10 10:05:56;;;;;;;7.75;1.70;;;;;;;29.03;68.35;101038.03;4934129;29;20039;-76
2023/07/10 10:08:27;;;;;;;6.32;1.60;;;;;;;29.14;68.54;101040.88;4926420;29;20514;-76
2023/07/10 10:11:09;;;;;;;8.63;1.52;;;;;;;29.23;69.57;101029.88;4888327;29;20480;-76
2023/07/10 10:13:40;;;;;;;5.85;1.20;;;;;;;29.41;66.93;101032.69;4911411;29;20475;-76
2023/07/10 10:16:09;;;;;;;8.40;1.92;;;;;;;29.51;67.34;101031.06;4954532;29;20038;-76
2023/07/10 10:18:58;;;;;;;5.68;1.25;;;;;;;29.64;65.33;101025.72;4922173;29;20051;-76
2023/07/10 10:21:24;;;;;;;8.85;1.45;;;;;;;29.71;64.26;101031.44;4942937;29;20035;-77
2023/07/10 10:23:51;;;;;;;8.40;1.73;;;;;;;29.81;63.55;101025.69;4909132;29;20047;-76
2023/07/10 10:26:24;;;;;;;4.95;1.52;;;;;;;29.95;63.47;101021.09;4956834;29;20050;-77
2023/07/10 10:29:01;;;;;;;5.28;1.33;;;;;;;30.02;64.35;101018.22;4942664;29;20093;-77
2023/07/10 10:31:32;;;;;;;4.40;1.30;;;;;;;30.14;63.00;101026.34;4926830;29;20439;-77
2023/07/10 10:34:20;;;;;;;7.25;1.33;;;;;;;30.31;62.83;101007.47;4959811;29;20110;-76
2023/07/10 10:37:18;;;;;;;8.80;1.50;;;;;;;30.42;62.62;101008.25;4959397;29;20044;-76
2023/07/10 10:39:48;;;;;;;4.35;1.20;;;;;;;30.59;62.07;101017.13;4938785;29;20105;-76
2023/07/10 10:42:37;;;;;;;5.18;1.20;;;;;;;30.73;58.47;101012.13;4893683;29;20081;-76
2023/07/10 10:45:16;;;;;;;7.20;1.45;;;;;;;30.88;58.87;101007.09;4929027;29;20526;-77
2023/07/10 10:47:50;;;;;;;7.80;1.33;;;;;;;30.96;56.56;101004.19;4938045;29;20035;-76
2023/07/10 10:50:22;;;;;;;4.53;1.13;;;;;;;31.15;58.00;101006.47;4958548;28;20094;-77
2023/07/10 10:53:10;;;;;;;3.65;1.20;;;;;;;31.13;53.94;101006.06;4923327;29;20047;-76
2023/07/10 10:55:44;;;;;;;6.10;1.27;;;;;;;31.20;56.07;101008.06;4968583;28;20097;-76
2023/07/10 10:58:13;;;;;;;7.40;1.27;;;;;;;31.24;53.76;101011.72;4952758;29;20035;-77
2023/07/10 11:01:00;;;;;;;9.15;1.33;;;;;;;31.29;51.63;101005.53;4923205;29;20131;-77
2023/07/10 11:03:39;;;;;;;6.03;1.25;;;;;;;31.34;53.64;101008.75;4921462;29;20055;-77
2023/07/10 11:06:36;;;;;;;3.13;1.05;;;;;;;31.41;51.11;101007.06;4941838;29;20031;-77
2023/07/10 11:09:05;;;;;;;4.43;0.90;;;;;;;31.49;51.10;101005.75;4939640;29;20448;-77
2023/07/10 11:11:32;;;;;;;7.90;1.23;;;;;;;31.57;50.53;101004.44;4941432;29;20193;-77
2023/07/10 11:13:59;;;;;;;6.78;1.33;;;;;;;31.62;50.01;101003.94;4948926;29;20080;-76
2023/07/10 11:16:29;;;;;;;5.57;1.25;;;;;;;31.69;48.74;101001.00;4922802;29;20407;-77
2023/07/10 11:18:54;;;;;;;5.45;1.33;;;;;;;31.78;50.14;101007.03;4923004;29;20032;-77
2023/07/10 11:21:20;;;;;;;6.97;1.23;;;;;;;31.79;48.86;100990.66;4904305;29;20038;-77
2023/07/10 11:23:48;;;;;;;6.25;1.20;;;;;;;31.84;47.38;100998.75;4923443;29;20068;-77
2023/07/10 11:26:14;;;;;;;5.70;1.20;;;;;;;31.93;47.64;100989.66;4923467;29;20036;-77